Terminal Aerodrome Forecast
Issued by NWS

Home | Current Version | Previous Version | Graphics & Text | Print | Product List | Glossary On
Versions: 1 2 3 4 5 6 7 8 9 10 11 12 13 14 15 16 17 18 19 20 21 22 23 24 25 26 27 28 29 30 31 32 33 34 35 36 37
000
FTUS43 KLOT 271823 AAA
TAFGYY
TAF AMD
KGYY 271823Z 2718/2818 08014KT P6SM OVC015
     FM271900 07015G20KT P6SM OVC020
     FM272200 07016G23KT 6SM SHRA SCT025 OVC035
      TEMPO 2722/2724 4SM SHRA
     FM280200 08015KT 6SM -SHRA VCTS BKN020CB
     FM280900 07015KT P6SM VCSH SCT009 OVC012
     FM281600 06016G23KT P6SM VCSH OVC018=

USA.gov is the U.S. government's official web portal to all federal, state and local government web resources and services.